createdAt,value
2019-03-09T00:01:17.566Z,73.40
2019-03-09T00:03:44.527Z,72.60
2019-03-09T00:06:13.520Z,73.00
2019-03-09T00:08:40.504Z,73.40
2019-03-09T00:11:07.689Z,72.80
2019-03-09T00:13:34.698Z,73.10
2019-03-09T00:16:01.773Z,73.50
2019-03-09T00:18:28.825Z,74.00
2019-03-09T00:20:55.828Z,73.70
2019-03-09T00:23:27.663Z,73.60
2019-03-09T00:26:13.484Z,73.10
2019-03-09T00:28:51.748Z,73.00
2019-03-09T00:31:25.385Z,73.40
2019-03-09T00:33:52.405Z,73.60
2019-03-09T00:36:19.307Z,73.40
2019-03-09T00:38:46.284Z,73.80
2019-03-09T00:41:13.365Z,73.70
2019-03-09T00:43:40.668Z,74.00
2019-03-09T00:46:07.736Z,74.20
2019-03-09T00:48:34.779Z,75.00
2019-03-09T00:51:01.845Z,75.40
2019-03-09T00:53:28.737Z,76.00
2019-03-09T00:55:55.822Z,75.80
2019-03-09T00:58:22.988Z,76.80
2019-03-09T01:00:49.998Z,76.10
2019-03-09T01:03:16.968Z,76.80
2019-03-09T01:05:43.918Z,76.70
2019-03-09T01:08:10.954Z,76.30
2019-03-09T01:10:38.021Z,76.80
2019-03-09T01:13:05.155Z,76.70
2019-03-09T01:15:32.169Z,76.70
2019-03-09T01:17:59.257Z,77.60
2019-03-09T01:20:26.232Z,78.20
2019-03-09T01:22:53.212Z,78.70
2019-03-09T01:25:20.097Z,78.70
2019-03-09T01:27:47.103Z,78.90
2019-03-09T01:30:16.169Z,79.20
2019-03-09T01:32:43.245Z,79.40
2019-03-09T01:35:10.137Z,79.80
2019-03-09T01:37:37.093Z,79.10
2019-03-09T01:40:05.239Z,80.00
2019-03-09T01:42:32.221Z,80.40
2019-03-09T01:44:59.248Z,80.20
2019-03-09T01:47:26.238Z,80.80
2019-03-09T01:49:53.244Z,80.50
2019-03-09T01:52:20.435Z,80.30
2019-03-09T01:54:47.358Z,79.90
2019-03-09T01:57:14.430Z,80.00
2019-03-09T01:59:41.483Z,80.20
2019-03-09T02:02:09.399Z,79.00
2019-03-09T02:04:36.424Z,79.00
2019-03-09T02:07:03.468Z,78.00
2019-03-09T02:09:30.532Z,76.50
2019-03-09T02:11:57.667Z,77.20
2019-03-09T02:14:24.673Z,76.60
2019-03-09T02:16:51.671Z,76.20
2019-03-09T02:19:18.700Z,75.70
2019-03-09T02:21:45.604Z,75.70
2019-03-09T02:24:12.532Z,75.50
2019-03-09T02:26:39.470Z,74.90
2019-03-09T02:29:06.472Z,75.00
2019-03-09T02:31:33.529Z,74.90
2019-03-09T02:34:00.447Z,74.90
2019-03-09T02:36:27.520Z,74.70
2019-03-09T02:38:56.441Z,74.40
2019-03-09T02:41:23.495Z,74.50
2019-03-09T02:43:50.484Z,74.70
2019-03-09T02:46:17.470Z,74.20
2019-03-09T02:48:44.422Z,74.40
2019-03-09T02:51:11.464Z,74.40
2019-03-09T02:53:38.510Z,73.70
2019-03-09T02:56:05.473Z,73.80
2019-03-09T02:58:32.447Z,75.00
2019-03-09T03:01:16.432Z,74.40
2019-03-09T03:03:43.520Z,74.40
2019-03-09T03:06:10.563Z,74.80
2019-03-09T03:08:37.761Z,75.10
2019-03-09T03:11:04.814Z,75.40
2019-03-09T03:13:31.778Z,76.00
2019-03-09T03:15:58.654Z,76.00
2019-03-09T03:18:25.619Z,76.20
2019-03-09T03:20:52.662Z,76.70
2019-03-09T03:23:19.693Z,76.40
2019-03-09T03:25:46.707Z,77.20
2019-03-09T03:28:13.621Z,77.20
2019-03-09T03:30:40.620Z,76.80
2019-03-09T03:33:07.667Z,76.80
2019-03-09T03:35:34.684Z,77.00
2019-03-09T03:38:01.651Z,77.20
2019-03-09T03:40:28.647Z,77.80
2019-03-09T03:42:55.676Z,79.30
2019-03-09T03:45:22.745Z,79.90
2019-03-09T03:47:49.647Z,80.60
2019-03-09T03:50:16.697Z,81.10
2019-03-09T03:52:43.712Z,81.90
2019-03-09T03:55:12.682Z,82.20
2019-03-09T03:57:39.718Z,82.70
2019-03-09T04:00:07.110Z,82.90
2019-03-09T04:02:34.192Z,83.50
2019-03-09T04:05:02.834Z,84.30
2019-03-09T04:07:30.190Z,84.90
2019-03-09T04:09:57.792Z,85.90
2019-03-09T04:12:25.195Z,85.80
2019-03-09T04:14:52.255Z,86.30
2019-03-09T04:17:19.156Z,85.90
2019-03-09T04:19:46.138Z,86.30
2019-03-09T04:22:13.101Z,86.30
2019-03-09T04:24:40.035Z,86.40
2019-03-09T04:27:10.111Z,87.00
2019-03-09T04:29:37.230Z,87.30
2019-03-09T04:32:04.113Z,88.20
2019-03-09T04:34:31.083Z,88.40
2019-03-09T04:36:59.675Z,89.10
2019-03-09T04:39:26.826Z,89.40
2019-03-09T04:41:53.832Z,89.80
2019-03-09T04:44:20.951Z,90.10
2019-03-09T04:46:47.938Z,90.10
2019-03-09T04:49:14.961Z,90.20
2019-03-09T04:51:42.019Z,90.30
2019-03-09T04:54:09.032Z,90.50
2019-03-09T04:56:36.121Z,90.80
2019-03-09T04:59:03.081Z,90.90
2019-03-09T05:01:30.009Z,91.00
2019-03-09T05:04:26.292Z,91.40
2019-03-09T05:06:53.570Z,91.60
2019-03-09T05:10:05.533Z,91.70
2019-03-09T05:12:32.624Z,91.70
2019-03-09T05:14:59.617Z,91.80
2019-03-09T05:17:26.621Z,91.80
2019-03-09T05:19:53.584Z,92.10
2019-03-09T05:22:20.635Z,92.30
2019-03-09T05:24:47.686Z,92.30
2019-03-09T05:27:14.778Z,92.30
2019-03-09T05:29:41.805Z,92.30
2019-03-09T05:32:08.905Z,92.30
2019-03-09T05:34:35.838Z,92.30
2019-03-09T05:37:03.008Z,92.30
2019-03-09T05:39:30.109Z,92.30
2019-03-09T05:41:57.142Z,92.30
2019-03-09T05:44:24.227Z,92.30
2019-03-09T05:46:51.243Z,92.30
2019-03-09T05:49:18.384Z,92.60
2019-03-09T05:52:30.199Z,92.50
2019-03-09T05:54:58.531Z,92.70
2019-03-09T05:57:25.590Z,92.70
2019-03-09T05:59:52.687Z,92.90
2019-03-09T06:02:19.600Z,92.80
2019-03-09T06:04:46.554Z,92.80
2019-03-09T06:07:13.732Z,92.80
2019-03-09T06:09:40.900Z,92.90
2019-03-09T06:12:07.867Z,92.90
2019-03-09T06:14:34.781Z,92.90
2019-03-09T06:17:01.736Z,93.00
2019-03-09T06:19:28.737Z,93.20
2019-03-09T06:21:55.680Z,93.00
2019-03-09T06:24:22.606Z,93.20
2019-03-09T06:26:49.578Z,93.10
2019-03-09T06:29:16.643Z,93.20
2019-03-09T06:32:21.493Z,93.60
2019-03-09T06:34:48.546Z,93.30
2019-03-09T06:37:18.106Z,92.90
2019-03-09T06:39:48.189Z,93.20
2019-03-09T06:42:50.449Z,93.00
2019-03-09T06:45:18.320Z,93.00
2019-03-09T06:47:45.346Z,92.30
2019-03-09T06:50:14.445Z,92.30
2019-03-09T06:52:43.235Z,92.10
2019-03-09T06:55:11.033Z,92.40
2019-03-09T06:57:38.130Z,92.00
2019-03-09T07:00:34.776Z,92.10
2019-03-09T07:03:02.289Z,91.60
2019-03-09T07:05:29.514Z,91.80
2019-03-09T07:07:56.525Z,91.50
2019-03-09T07:10:24.002Z,91.50
2019-03-09T07:12:51.073Z,91.30
2019-03-09T07:15:29.273Z,91.10
2019-03-09T07:18:07.388Z,91.00
2019-03-09T07:20:35.594Z,91.00
2019-03-09T07:23:02.706Z,91.00
2019-03-09T07:25:29.639Z,90.90
2019-03-09T07:28:08.021Z,90.90
2019-03-09T07:30:35.771Z,90.60
2019-03-09T07:33:04.350Z,90.90
2019-03-09T07:35:31.384Z,90.80
2019-03-09T07:37:58.464Z,90.90
2019-03-09T07:40:25.352Z,90.70
2019-03-09T07:42:52.347Z,90.70
2019-03-09T07:45:19.869Z,90.40
2019-03-09T07:47:49.006Z,90.40
2019-03-09T07:50:16.703Z,90.10
2019-03-09T07:52:44.145Z,90.20
2019-03-09T07:55:13.838Z,89.20
2019-03-09T07:57:41.004Z,87.20
2019-03-09T08:00:13.630Z,87.40
2019-03-09T08:02:40.708Z,86.90
2019-03-09T08:05:08.492Z,86.70
2019-03-09T08:07:35.520Z,87.30
2019-03-09T08:10:03.215Z,87.50
2019-03-09T08:12:30.257Z,86.50
2019-03-09T08:14:57.170Z,86.50
2019-03-09T08:17:25.304Z,85.70
2019-03-09T08:19:52.412Z,85.80
2019-03-09T08:22:19.446Z,85.70
2019-03-09T08:24:46.373Z,85.80
2019-03-09T08:27:13.337Z,86.30
2019-03-09T08:29:40.392Z,86.10
2019-03-09T08:32:07.400Z,86.10
2019-03-09T08:34:34.709Z,85.80
2019-03-09T08:37:01.790Z,85.70
2019-03-09T08:39:29.088Z,85.60
2019-03-09T08:41:56.078Z,86.10
2019-03-09T08:44:23.168Z,86.30
2019-03-09T08:46:50.212Z,86.60
2019-03-09T08:49:17.488Z,86.60
2019-03-09T08:51:44.488Z,87.30
2019-03-09T08:54:11.781Z,87.30
2019-03-09T08:56:38.796Z,87.40
2019-03-09T08:59:05.861Z,86.70
2019-03-09T09:01:33.136Z,86.00
2019-03-09T09:04:00.141Z,85.60
2019-03-09T09:06:29.272Z,85.40
2019-03-09T09:08:56.415Z,85.40
2019-03-09T09:11:23.575Z,85.00
2019-03-09T09:13:50.870Z,84.60
2019-03-09T09:16:20.631Z,84.60
2019-03-09T09:18:47.759Z,83.70
2019-03-09T09:21:14.843Z,83.20
2019-03-09T09:23:41.891Z,82.40
2019-03-09T09:26:09.151Z,82.50
2019-03-09T09:28:36.164Z,82.40
2019-03-09T09:31:03.097Z,80.60
2019-03-09T09:33:30.062Z,80.10
2019-03-09T09:35:58.220Z,78.40
2019-03-09T09:38:25.368Z,78.50
2019-03-09T09:40:52.435Z,78.10
2019-03-09T09:43:19.498Z,76.60
2019-03-09T09:45:46.533Z,76.30
2019-03-09T09:48:13.434Z,75.50
2019-03-09T09:50:40.610Z,74.60
2019-03-09T09:53:07.603Z,74.40
2019-03-09T09:55:34.587Z,74.70
2019-03-09T09:58:01.587Z,74.50
2019-03-09T10:00:28.966Z,74.50
2019-03-09T10:02:55.909Z,74.20
2019-03-09T10:05:23.291Z,74.00
2019-03-09T10:07:50.256Z,73.50
2019-03-09T10:10:17.417Z,73.60
2019-03-09T10:12:44.535Z,73.60
2019-03-09T10:15:13.846Z,73.20
2019-03-09T10:17:40.878Z,72.50
2019-03-09T10:20:08.553Z,72.80
2019-03-09T10:22:35.650Z,72.40
2019-03-09T10:25:03.608Z,73.00
2019-03-09T10:27:50.832Z,73.10
2019-03-09T10:30:19.338Z,73.40
2019-03-09T10:32:46.353Z,76.10
2019-03-09T10:35:16.768Z,77.20
2019-03-09T10:37:44.102Z,77.70
2019-03-09T10:40:12.437Z,77.90
2019-03-09T10:42:39.596Z,78.10
2019-03-09T10:45:07.367Z,77.80
2019-03-09T10:47:34.509Z,77.90
2019-03-09T10:50:01.774Z,77.60
2019-03-09T10:52:30.199Z,77.90
2019-03-09T10:54:57.200Z,77.50
2019-03-09T10:57:24.379Z,77.00
2019-03-09T10:59:51.628Z,76.50
2019-03-09T11:02:18.778Z,74.70
2019-03-09T11:04:46.051Z,73.90
2019-03-09T11:07:13.161Z,72.80
2019-03-09T11:09:40.337Z,71.90
2019-03-09T11:12:07.383Z,72.80
2019-03-09T11:14:34.515Z,72.50
2019-03-09T11:17:01.648Z,73.20
2019-03-09T11:19:28.741Z,74.00
2019-03-09T11:21:55.907Z,74.00
2019-03-09T11:24:23.360Z,74.20
2019-03-09T11:26:50.472Z,73.80
2019-03-09T11:29:17.423Z,73.40
2019-03-09T11:31:44.460Z,73.80
2019-03-09T11:34:11.755Z,74.10
2019-03-09T11:36:38.754Z,74.20
2019-03-09T11:39:06.402Z,75.30
2019-03-09T11:41:33.417Z,75.50
2019-03-09T11:44:00.741Z,74.90
2019-03-09T11:46:27.964Z,75.40
2019-03-09T11:48:55.025Z,75.90
2019-03-09T11:51:21.961Z,76.20
2019-03-09T11:53:49.123Z,76.00
2019-03-09T11:56:16.305Z,75.90
2019-03-09T11:58:43.208Z,75.40
2019-03-09T12:01:10.353Z,75.50
2019-03-09T12:03:37.618Z,75.90
2019-03-09T12:06:04.686Z,75.90
2019-03-09T12:08:31.830Z,75.30
2019-03-09T12:10:58.862Z,75.10
2019-03-09T12:13:25.942Z,75.20
2019-03-09T12:15:53.083Z,74.80
2019-03-09T12:18:20.057Z,74.70
2019-03-09T12:20:47.149Z,74.90
2019-03-09T12:23:19.430Z,75.30
2019-03-09T12:25:46.560Z,74.80
2019-03-09T12:28:13.810Z,75.30
2019-03-09T12:30:40.898Z,75.20
2019-03-09T12:33:08.002Z,75.50
2019-03-09T12:35:35.018Z,75.90
2019-03-09T12:38:02.316Z,75.30
2019-03-09T12:40:29.443Z,75.00
2019-03-09T12:42:56.493Z,74.70
2019-03-09T12:45:23.777Z,74.90
2019-03-09T12:47:50.929Z,74.30
2019-03-09T12:50:18.005Z,73.70
2019-03-09T12:52:44.969Z,73.80
2019-03-09T12:55:12.372Z,73.30
2019-03-09T12:57:39.353Z,74.20
2019-03-09T13:00:09.593Z,74.70
2019-03-09T13:02:36.623Z,74.20
2019-03-09T13:05:04.695Z,74.20
2019-03-09T13:07:31.683Z,73.70
2019-03-09T13:09:58.784Z,74.20
2019-03-09T13:12:25.782Z,74.20
2019-03-09T13:14:52.883Z,73.80
2019-03-09T13:17:19.952Z,75.20
2019-03-09T13:19:46.996Z,75.60
2019-03-09T13:22:13.968Z,75.60
2019-03-09T13:24:41.014Z,75.40
2019-03-09T13:27:08.119Z,76.40
2019-03-09T13:29:35.144Z,76.00
2019-03-09T13:32:02.043Z,76.50
2019-03-09T13:34:29.124Z,76.00
2019-03-09T13:36:56.116Z,76.50
2019-03-09T13:39:23.017Z,78.20
2019-03-09T13:41:50.005Z,79.30
2019-03-09T13:44:16.904Z,80.20
2019-03-09T13:46:43.976Z,80.30
2019-03-09T13:49:10.906Z,80.30
2019-03-09T13:51:37.858Z,80.30
2019-03-09T13:54:04.802Z,80.30
2019-03-09T13:56:31.706Z,80.30
2019-03-09T13:58:58.820Z,81.60
2019-03-09T14:01:25.883Z,81.30
2019-03-09T14:03:52.954Z,80.80
2019-03-09T14:06:20.031Z,81.40
2019-03-09T14:08:47.157Z,82.30
2019-03-09T14:11:14.179Z,82.60
2019-03-09T14:13:41.240Z,83.90
2019-03-09T14:16:08.222Z,83.90
2019-03-09T14:18:35.212Z,84.30
2019-03-09T14:21:02.332Z,83.40
2019-03-09T14:23:29.451Z,83.60
2019-03-09T14:25:57.450Z,84.60
2019-03-09T14:28:24.454Z,84.40
2019-03-09T14:30:54.208Z,84.30
2019-03-09T14:33:21.357Z,83.70
2019-03-09T14:35:48.405Z,82.70
2019-03-09T14:38:15.422Z,82.30
2019-03-09T14:40:42.488Z,81.80
2019-03-09T14:43:09.586Z,83.00
2019-03-09T14:45:36.592Z,82.80
2019-03-09T14:48:03.567Z,83.10
2019-03-09T14:50:30.542Z,83.50
2019-03-09T14:52:57.521Z,83.40
2019-03-09T14:55:24.565Z,83.20
2019-03-09T14:57:51.608Z,83.30
2019-03-09T15:00:19.294Z,83.70
2019-03-09T15:02:46.434Z,83.60
2019-03-09T15:05:13.508Z,83.30
2019-03-09T15:07:40.424Z,82.60
2019-03-09T15:10:07.946Z,82.00
2019-03-09T15:12:35.087Z,80.30
2019-03-09T15:15:02.292Z,79.50
2019-03-09T15:17:29.344Z,79.40
2019-03-09T15:19:56.299Z,78.40
2019-03-09T15:22:23.473Z,78.20
2019-03-09T15:24:50.524Z,76.70
2019-03-09T15:27:17.601Z,76.70
2019-03-09T15:29:44.653Z,76.90
2019-03-09T15:32:13.669Z,75.10
2019-03-09T15:34:40.744Z,73.50
2019-03-09T15:37:07.707Z,70.30
2019-03-09T15:39:34.691Z,68.50
2019-03-09T15:42:01.989Z,68.60
2019-03-09T15:44:29.143Z,68.30
2019-03-09T15:46:56.290Z,67.00
2019-03-09T15:49:23.419Z,65.00
2019-03-09T15:51:50.485Z,63.20
2019-03-09T15:54:17.617Z,61.70
2019-03-09T15:56:44.680Z,60.20
2019-03-09T15:59:11.715Z,59.50
2019-03-09T16:01:38.607Z,59.80
2019-03-09T16:04:05.676Z,60.70
2019-03-09T16:06:32.784Z,60.70
2019-03-09T16:08:59.822Z,60.70
2019-03-09T16:11:26.819Z,60.60
2019-03-09T16:13:53.809Z,60.60
2019-03-09T16:16:20.878Z,60.60
2019-03-09T16:18:47.810Z,59.20
2019-03-09T16:21:14.950Z,59.30
2019-03-09T16:23:41.965Z,58.40
2019-03-09T16:26:09.056Z,58.30
2019-03-09T16:28:36.085Z,58.00
2019-03-09T16:31:03.060Z,58.40
2019-03-09T16:33:29.975Z,58.70
2019-03-09T16:35:56.880Z,58.20
2019-03-09T16:38:24.056Z,58.30
2019-03-09T16:40:51.028Z,58.40
2019-03-09T16:43:18.055Z,58.30
2019-03-09T16:45:45.451Z,58.40
2019-03-09T16:48:12.506Z,58.10
2019-03-09T16:50:39.565Z,57.50
2019-03-09T16:53:06.531Z,57.50
2019-03-09T16:55:33.707Z,56.70
2019-03-09T16:58:00.744Z,57.30
2019-03-09T17:00:27.746Z,57.10
2019-03-09T17:02:54.774Z,57.50
2019-03-09T17:05:21.772Z,57.80
2019-03-09T17:07:48.797Z,58.00
2019-03-09T17:10:18.586Z,57.80
2019-03-09T17:12:44.848Z,57.80
2019-03-09T17:15:12.913Z,58.40
2019-03-09T17:17:40.009Z,58.50
2019-03-09T17:20:08.213Z,58.60
2019-03-09T17:22:35.159Z,58.50
2019-03-09T17:25:02.185Z,59.20
2019-03-09T17:27:29.090Z,59.00
2019-03-09T17:29:56.122Z,59.70
2019-03-09T17:32:25.970Z,59.70
2019-03-09T17:34:52.070Z,59.70
2019-03-09T17:37:19.084Z,59.60
2019-03-09T17:39:46.022Z,59.70
2019-03-09T17:42:12.976Z,59.70
2019-03-09T17:44:39.879Z,59.70
2019-03-09T17:47:06.974Z,59.60
2019-03-09T17:49:33.959Z,59.50
2019-03-09T17:52:00.898Z,59.60
2019-03-09T17:54:27.974Z,59.50
2019-03-09T17:56:56.508Z,59.40
2019-03-09T17:59:23.444Z,59.50
2019-03-09T18:01:50.408Z,59.60
2019-03-09T18:04:17.436Z,59.50
2019-03-09T18:06:44.460Z,59.60
2019-03-09T18:09:11.394Z,59.70
2019-03-09T18:11:38.393Z,59.70
2019-03-09T18:14:07.181Z,59.70
2019-03-09T18:16:34.180Z,59.70
2019-03-09T18:19:01.160Z,59.90
2019-03-09T18:21:28.066Z,60.30
2019-03-09T18:23:55.120Z,60.60
2019-03-09T18:26:22.324Z,60.90
2019-03-09T18:28:49.348Z,60.40
2019-03-09T18:31:16.472Z,60.60
2019-03-09T18:33:43.554Z,60.40
2019-03-09T18:36:10.610Z,61.00
2019-03-09T18:38:37.578Z,60.70
2019-03-09T18:41:04.580Z,60.80
2019-03-09T18:43:32.536Z,61.00
2019-03-09T18:45:59.737Z,61.50
2019-03-09T18:48:26.865Z,62.40
2019-03-09T18:50:54.005Z,62.90
2019-03-09T18:53:21.084Z,64.00
2019-03-09T18:55:48.047Z,64.10
2019-03-09T18:58:15.328Z,65.10
2019-03-09T19:00:42.569Z,64.90
2019-03-09T19:03:09.548Z,65.60
2019-03-09T19:05:36.671Z,65.60
2019-03-09T19:08:03.685Z,65.30
2019-03-09T19:10:30.593Z,65.80
2019-03-09T19:12:57.527Z,66.30
2019-03-09T19:15:24.602Z,65.40
2019-03-09T19:17:51.715Z,65.30
2019-03-09T19:20:18.673Z,65.10
2019-03-09T19:22:46.621Z,65.40
2019-03-09T19:25:13.762Z,65.80
2019-03-09T19:27:40.824Z,68.70
2019-03-09T19:30:09.814Z,70.50
2019-03-09T19:32:36.820Z,71.80
2019-03-09T19:35:04.526Z,73.10
2019-03-09T19:37:31.653Z,73.10
2019-03-09T19:39:58.713Z,74.30
2019-03-09T19:42:25.746Z,74.40
2019-03-09T19:44:52.725Z,73.90
2019-03-09T19:47:19.830Z,73.00
2019-03-09T19:49:46.867Z,75.30
2019-03-09T19:52:13.961Z,75.60
2019-03-09T19:54:40.941Z,76.20
2019-03-09T19:57:07.976Z,77.40
2019-03-09T19:59:34.943Z,77.40
2019-03-09T20:02:01.969Z,77.50
2019-03-09T20:04:29.456Z,74.40
2019-03-09T20:06:56.520Z,71.80
2019-03-09T20:09:23.473Z,70.20
2019-03-09T20:11:50.641Z,69.00
2019-03-09T20:14:17.662Z,68.40
2019-03-09T20:16:44.944Z,68.70
2019-03-09T20:19:12.123Z,67.80
2019-03-09T20:21:39.189Z,67.60
2019-03-09T20:24:06.225Z,66.90
2019-03-09T20:26:33.339Z,66.30
2019-03-09T20:29:00.355Z,67.00
2019-03-09T20:31:27.344Z,66.20
2019-03-09T20:33:54.466Z,66.00
2019-03-09T20:36:21.491Z,67.70
2019-03-09T20:38:48.905Z,67.20
2019-03-09T20:41:15.897Z,65.70
2019-03-09T20:43:43.044Z,66.00
2019-03-09T20:46:11.876Z,64.50
2019-03-09T20:48:39.006Z,65.20
2019-03-09T20:51:06.028Z,65.10
2019-03-09T20:53:33.473Z,65.10
2019-03-09T20:56:00.753Z,65.60
2019-03-09T20:58:28.092Z,65.70
2019-03-09T21:00:55.116Z,65.70
2019-03-09T21:03:23.024Z,65.70
2019-03-09T21:05:50.089Z,65.50
2019-03-09T21:08:17.384Z,65.70
2019-03-09T21:10:44.530Z,65.70
2019-03-09T21:13:11.588Z,65.50
2019-03-09T21:15:38.684Z,65.20
2019-03-09T21:18:05.759Z,64.90
2019-03-09T21:20:32.898Z,64.90
2019-03-09T21:23:00.170Z,64.90
2019-03-09T21:25:27.211Z,64.80
2019-03-09T21:27:55.954Z,65.00
2019-03-09T21:30:23.450Z,64.80
2019-03-09T21:32:50.512Z,64.90
2019-03-09T21:35:17.534Z,64.60
2019-03-09T21:37:44.703Z,64.60
2019-03-09T21:40:12.175Z,64.80
2019-03-09T21:42:39.424Z,64.70
2019-03-09T21:45:07.889Z,64.70
2019-03-09T21:47:34.943Z,64.90
2019-03-09T21:50:03.043Z,64.80
2019-03-09T21:52:30.132Z,64.90
2019-03-09T21:54:57.279Z,64.70
2019-03-09T21:57:24.390Z,64.50
2019-03-09T21:59:51.411Z,64.60
2019-03-09T22:02:18.488Z,64.80
2019-03-09T22:04:45.881Z,64.30
2019-03-09T22:07:12.876Z,64.40
2019-03-09T22:09:39.962Z,64.40
2019-03-09T22:12:07.001Z,64.30
2019-03-09T22:14:34.011Z,64.30
2019-03-09T22:17:08.818Z,63.50
2019-03-09T22:19:35.804Z,63.60
2019-03-09T22:22:05.818Z,63.80
2019-03-09T22:24:32.720Z,63.40
2019-03-09T22:26:59.822Z,62.20
2019-03-09T22:29:26.800Z,62.80
2019-03-09T22:31:53.887Z,62.40
2019-03-09T22:34:21.036Z,62.40
2019-03-09T22:36:48.025Z,61.40
2019-03-09T22:39:15.058Z,61.40
2019-03-09T22:41:42.103Z,61.20
2019-03-09T22:44:09.253Z,61.50
2019-03-09T22:46:36.345Z,61.50
2019-03-09T22:49:03.334Z,61.40
2019-03-09T22:51:30.507Z,61.80
2019-03-09T22:53:57.406Z,61.90
2019-03-09T22:56:24.467Z,62.30
2019-03-09T22:58:51.418Z,62.30
2019-03-09T23:01:18.504Z,62.20
2019-03-09T23:03:45.407Z,62.40
2019-03-09T23:06:12.559Z,62.40
2019-03-09T23:08:39.520Z,62.50
2019-03-09T23:11:06.591Z,62.70
2019-03-09T23:13:33.476Z,62.50
2019-03-09T23:16:00.581Z,62.70
2019-03-09T23:18:27.515Z,62.70
2019-03-09T23:20:54.538Z,62.70
2019-03-09T23:23:21.430Z,63.00
2019-03-09T23:25:48.365Z,63.20
2019-03-09T23:28:15.326Z,63.30
2019-03-09T23:30:42.375Z,63.70
2019-03-09T23:33:09.361Z,63.70
2019-03-09T23:35:36.332Z,64.20
2019-03-09T23:38:03.409Z,63.90
2019-03-09T23:40:30.403Z,64.00
2019-03-09T23:42:57.445Z,63.80
2019-03-09T23:45:24.445Z,63.50
2019-03-09T23:47:51.568Z,63.30
2019-03-09T23:50:18.724Z,63.20
2019-03-09T23:52:45.891Z,63.40
2019-03-09T23:55:21.157Z,64.10
2019-03-09T23:57:42.462Z,62.20
